sensor_id;sensor_type;location;lat;lon;timestamp;P1;durP1;ratioP1;P2;durP2;ratioP2
22705;SDS011;11520;51.198;4.468;2023-03-11T00:03:57;9.43;;;2.05;;
22705;SDS011;11520;51.198;4.468;2023-03-11T00:06:26;7.03;;;2.05;;
22705;SDS011;11520;51.198;4.468;2023-03-11T00:08:53;9.48;;;2.15;;
22705;SDS011;11520;51.198;4.468;2023-03-11T00:11:20;8.88;;;1.98;;
22705;SDS011;11520;51.198;4.468;2023-03-11T00:13:48;6.97;;;1.42;;
22705;SDS011;11520;51.198;4.468;2023-03-11T00:16:15;5.57;;;1.40;;
22705;SDS011;11520;51.198;4.468;2023-03-11T00:18:41;7.75;;;1.95;;
22705;SDS011;11520;51.198;4.468;2023-03-11T00:23:46;7.85;;;1.80;;
22705;SDS011;11520;51.198;4.468;2023-03-11T00:26:16;4.35;;;1.52;;
22705;SDS011;11520;51.198;4.468;2023-03-11T00:28:43;14.65;;;2.47;;
22705;SDS011;11520;51.198;4.468;2023-03-11T00:31:12;8.57;;;1.73;;
22705;SDS011;11520;51.198;4.468;2023-03-11T00:33:38;13.70;;;2.25;;
22705;SDS011;11520;51.198;4.468;2023-03-11T00:36:04;10.02;;;2.25;;
22705;SDS011;11520;51.198;4.468;2023-03-11T00:38:31;10.90;;;2.38;;
22705;SDS011;11520;51.198;4.468;2023-03-11T00:40:57;7.45;;;2.50;;
22705;SDS011;11520;51.198;4.468;2023-03-11T00:43:26;11.45;;;3.03;;
22705;SDS011;11520;51.198;4.468;2023-03-11T00:45:53;10.90;;;3.03;;
22705;SDS011;11520;51.198;4.468;2023-03-11T00:48:20;7.93;;;2.53;;
22705;SDS011;11520;51.198;4.468;2023-03-11T00:50:48;12.13;;;2.47;;
22705;SDS011;11520;51.198;4.468;2023-03-11T00:56:37;6.82;;;2.38;;
22705;SDS011;11520;51.198;4.468;2023-03-11T00:59:05;11.52;;;2.58;;
22705;SDS011;11520;51.198;4.468;2023-03-11T01:01:31;11.00;;;3.72;;
22705;SDS011;11520;51.198;4.468;2023-03-11T01:04:01;5.82;;;2.90;;
22705;SDS011;11520;51.198;4.468;2023-03-11T01:06:28;13.82;;;3.17;;
22705;SDS011;11520;51.198;4.468;2023-03-11T01:08:59;8.00;;;2.78;;
22705;SDS011;11520;51.198;4.468;2023-03-11T01:11:30;11.23;;;3.20;;
22705;SDS011;11520;51.198;4.468;2023-03-11T01:13:59;13.55;;;3.28;;
22705;SDS011;11520;51.198;4.468;2023-03-11T01:16:26;12.00;;;3.17;;
22705;SDS011;11520;51.198;4.468;2023-03-11T01:18:51;10.43;;;3.30;;
22705;SDS011;11520;51.198;4.468;2023-03-11T01:21:18;7.28;;;2.53;;
22705;SDS011;11520;51.198;4.468;2023-03-11T01:23:43;8.95;;;2.47;;
22705;SDS011;11520;51.198;4.468;2023-03-11T01:26:11;9.38;;;2.05;;
22705;SDS011;11520;51.198;4.468;2023-03-11T01:28:38;5.03;;;1.92;;
22705;SDS011;11520;51.198;4.468;2023-03-11T01:31:10;6.13;;;2.35;;
22705;SDS011;11520;51.198;4.468;2023-03-11T01:33:39;13.80;;;2.45;;
22705;SDS011;11520;51.198;4.468;2023-03-11T01:36:06;12.48;;;2.75;;
22705;SDS011;11520;51.198;4.468;2023-03-11T01:38:36;6.70;;;2.60;;
22705;SDS011;11520;51.198;4.468;2023-03-11T01:41:02;12.20;;;2.65;;
22705;SDS011;11520;51.198;4.468;2023-03-11T01:43:39;9.50;;;2.20;;
22705;SDS011;11520;51.198;4.468;2023-03-11T01:48:38;14.10;;;2.38;;
22705;SDS011;11520;51.198;4.468;2023-03-11T01:51:07;9.60;;;2.28;;
22705;SDS011;11520;51.198;4.468;2023-03-11T01:54:03;8.43;;;3.05;;
22705;SDS011;11520;51.198;4.468;2023-03-11T01:59:12;7.55;;;2.20;;
22705;SDS011;11520;51.198;4.468;2023-03-11T02:01:43;7.05;;;2.47;;
22705;SDS011;11520;51.198;4.468;2023-03-11T02:04:17;6.13;;;2.03;;
22705;SDS011;11520;51.198;4.468;2023-03-11T02:06:55;5.68;;;1.98;;
22705;SDS011;11520;51.198;4.468;2023-03-11T02:09:42;11.88;;;2.70;;
22705;SDS011;11520;51.198;4.468;2023-03-11T02:12:12;7.32;;;2.17;;
22705;SDS011;11520;51.198;4.468;2023-03-11T02:14:41;9.55;;;2.45;;
22705;SDS011;11520;51.198;4.468;2023-03-11T02:17:12;12.65;;;2.78;;
22705;SDS011;11520;51.198;4.468;2023-03-11T02:22:33;9.35;;;2.17;;
22705;SDS011;11520;51.198;4.468;2023-03-11T02:25:04;10.90;;;2.17;;
22705;SDS011;11520;51.198;4.468;2023-03-11T02:27:47;9.38;;;2.50;;
22705;SDS011;11520;51.198;4.468;2023-03-11T02:30:19;6.07;;;2.42;;
22705;SDS011;11520;51.198;4.468;2023-03-11T02:32:46;10.35;;;2.40;;
22705;SDS011;11520;51.198;4.468;2023-03-11T02:42:50;11.07;;;2.78;;
22705;SDS011;11520;51.198;4.468;2023-03-11T02:45:33;14.45;;;2.65;;
22705;SDS011;11520;51.198;4.468;2023-03-11T02:48:04;9.02;;;2.95;;
22705;SDS011;11520;51.198;4.468;2023-03-11T02:50:33;9.68;;;2.80;;
22705;SDS011;11520;51.198;4.468;2023-03-11T02:53:07;7.18;;;2.60;;
22705;SDS011;11520;51.198;4.468;2023-03-11T02:55:34;7.25;;;1.90;;
22705;SDS011;11520;51.198;4.468;2023-03-11T02:58:03;10.15;;;1.88;;
22705;SDS011;11520;51.198;4.468;2023-03-11T03:00:42;7.20;;;2.22;;
22705;SDS011;11520;51.198;4.468;2023-03-11T03:03:11;6.85;;;2.15;;
22705;SDS011;11520;51.198;4.468;2023-03-11T03:05:41;11.50;;;2.47;;
22705;SDS011;11520;51.198;4.468;2023-03-11T03:08:07;13.30;;;1.90;;
22705;SDS011;11520;51.198;4.468;2023-03-11T03:10:39;8.85;;;2.30;;
22705;SDS011;11520;51.198;4.468;2023-03-11T03:13:05;15.93;;;2.42;;
22705;SDS011;11520;51.198;4.468;2023-03-11T03:15:31;11.23;;;2.58;;
22705;SDS011;11520;51.198;4.468;2023-03-11T03:17:58;11.63;;;2.72;;
22705;SDS011;11520;51.198;4.468;2023-03-11T03:20:26;13.73;;;2.83;;
22705;SDS011;11520;51.198;4.468;2023-03-11T03:25:22;6.95;;;2.30;;
22705;SDS011;11520;51.198;4.468;2023-03-11T03:27:49;7.82;;;2.28;;
22705;SDS011;11520;51.198;4.468;2023-03-11T03:30:15;12.85;;;2.50;;
22705;SDS011;11520;51.198;4.468;2023-03-11T03:32:46;12.68;;;2.42;;
22705;SDS011;11520;51.198;4.468;2023-03-11T03:35:12;6.45;;;2.03;;
22705;SDS011;11520;51.198;4.468;2023-03-11T03:37:39;7.63;;;2.35;;
22705;SDS011;11520;51.198;4.468;2023-03-11T03:40:06;9.05;;;2.65;;
22705;SDS011;11520;51.198;4.468;2023-03-11T03:42:34;11.10;;;2.42;;
22705;SDS011;11520;51.198;4.468;2023-03-11T03:45:03;6.55;;;2.10;;
22705;SDS011;11520;51.198;4.468;2023-03-11T03:47:30;6.43;;;2.50;;
22705;SDS011;11520;51.198;4.468;2023-03-11T03:49:57;6.07;;;2.38;;
22705;SDS011;11520;51.198;4.468;2023-03-11T03:52:26;11.18;;;2.38;;
22705;SDS011;11520;51.198;4.468;2023-03-11T03:54:52;7.97;;;2.65;;
22705;SDS011;11520;51.198;4.468;2023-03-11T03:59:49;6.97;;;2.08;;
22705;SDS011;11520;51.198;4.468;2023-03-11T04:02:15;8.30;;;2.20;;
22705;SDS011;11520;51.198;4.468;2023-03-11T04:04:40;8.27;;;2.17;;
22705;SDS011;11520;51.198;4.468;2023-03-11T04:07:06;14.70;;;3.17;;
22705;SDS011;11520;51.198;4.468;2023-03-11T04:09:32;13.13;;;3.08;;
22705;SDS011;11520;51.198;4.468;2023-03-11T04:12:00;8.77;;;3.00;;
22705;SDS011;11520;51.198;4.468;2023-03-11T04:16:54;10.32;;;2.95;;
22705;SDS011;11520;51.198;4.468;2023-03-11T04:19:21;8.55;;;2.85;;
22705;SDS011;11520;51.198;4.468;2023-03-11T04:21:49;11.18;;;2.90;;
22705;SDS011;11520;51.198;4.468;2023-03-11T04:24:17;13.00;;;3.05;;
22705;SDS011;11520;51.198;4.468;2023-03-11T04:29:26;16.17;;;3.95;;
22705;SDS011;11520;51.198;4.468;2023-03-11T04:31:53;9.30;;;3.08;;
22705;SDS011;11520;51.198;4.468;2023-03-11T04:34:23;11.35;;;3.75;;
22705;SDS011;11520;51.198;4.468;2023-03-11T04:36:51;11.35;;;3.80;;
22705;SDS011;11520;51.198;4.468;2023-03-11T04:39:17;12.80;;;3.42;;
22705;SDS011;11520;51.198;4.468;2023-03-11T04:41:43;10.20;;;3.50;;
22705;SDS011;11520;51.198;4.468;2023-03-11T04:44:09;14.25;;;3.63;;
22705;SDS011;11520;51.198;4.468;2023-03-11T04:46:38;10.20;;;3.78;;
22705;SDS011;11520;51.198;4.468;2023-03-11T04:49:07;18.30;;;4.22;;
22705;SDS011;11520;51.198;4.468;2023-03-11T04:51:41;11.43;;;4.00;;
22705;SDS011;11520;51.198;4.468;2023-03-11T04:54:08;14.55;;;4.15;;
22705;SDS011;11520;51.198;4.468;2023-03-11T04:56:37;14.20;;;4.38;;
22705;SDS011;11520;51.198;4.468;2023-03-11T04:59:04;15.25;;;4.28;;
22705;SDS011;11520;51.198;4.468;2023-03-11T05:01:31;10.85;;;3.70;;
22705;SDS011;11520;51.198;4.468;2023-03-11T05:03:58;12.48;;;4.10;;
22705;SDS011;11520;51.198;4.468;2023-03-11T05:06:24;13.38;;;4.30;;
22705;SDS011;11520;51.198;4.468;2023-03-11T05:08:51;10.15;;;4.18;;
22705;SDS011;11520;51.198;4.468;2023-03-11T05:11:17;12.63;;;4.00;;
22705;SDS011;11520;51.198;4.468;2023-03-11T05:13:48;10.38;;;4.05;;
22705;SDS011;11520;51.198;4.468;2023-03-11T05:16:15;13.68;;;3.72;;
22705;SDS011;11520;51.198;4.468;2023-03-11T05:18:43;12.15;;;4.07;;
22705;SDS011;11520;51.198;4.468;2023-03-11T05:21:09;11.10;;;3.85;;
22705;SDS011;11520;51.198;4.468;2023-03-11T05:23:36;10.13;;;3.60;;
22705;SDS011;11520;51.198;4.468;2023-03-11T05:26:03;10.43;;;3.45;;
22705;SDS011;11520;51.198;4.468;2023-03-11T05:28:30;12.30;;;4.40;;
22705;SDS011;11520;51.198;4.468;2023-03-11T05:30:55;14.18;;;3.65;;
22705;SDS011;11520;51.198;4.468;2023-03-11T05:33:22;9.25;;;3.95;;
22705;SDS011;11520;51.198;4.468;2023-03-11T05:35:48;12.95;;;3.70;;
22705;SDS011;11520;51.198;4.468;2023-03-11T05:38:17;16.40;;;4.53;;
22705;SDS011;11520;51.198;4.468;2023-03-11T05:40:43;14.00;;;4.55;;
22705;SDS011;11520;51.198;4.468;2023-03-11T05:43:12;14.95;;;4.93;;
22705;SDS011;11520;51.198;4.468;2023-03-11T05:45:37;15.93;;;4.90;;
22705;SDS011;11520;51.198;4.468;2023-03-11T05:48:04;12.63;;;4.60;;
22705;SDS011;11520;51.198;4.468;2023-03-11T05:50:31;16.88;;;4.50;;
22705;SDS011;11520;51.198;4.468;2023-03-11T05:52:57;12.52;;;4.68;;
22705;SDS011;11520;51.198;4.468;2023-03-11T05:55:23;14.18;;;4.47;;
22705;SDS011;11520;51.198;4.468;2023-03-11T05:57:49;17.55;;;4.65;;
22705;SDS011;11520;51.198;4.468;2023-03-11T06:00:16;10.45;;;4.95;;
22705;SDS011;11520;51.198;4.468;2023-03-11T06:02:50;16.37;;;5.27;;
22705;SDS011;11520;51.198;4.468;2023-03-11T06:05:19;14.23;;;5.18;;
22705;SDS011;11520;51.198;4.468;2023-03-11T06:07:46;13.32;;;5.05;;
22705;SDS011;11520;51.198;4.468;2023-03-11T06:10:12;21.75;;;5.40;;
22705;SDS011;11520;51.198;4.468;2023-03-11T06:12:38;11.55;;;5.07;;
22705;SDS011;11520;51.198;4.468;2023-03-11T06:15:06;12.23;;;5.35;;
22705;SDS011;11520;51.198;4.468;2023-03-11T06:17:36;12.20;;;5.93;;
22705;SDS011;11520;51.198;4.468;2023-03-11T06:20:02;18.70;;;5.95;;
22705;SDS011;11520;51.198;4.468;2023-03-11T06:22:38;15.35;;;6.50;;
22705;SDS011;11520;51.198;4.468;2023-03-11T06:25:04;14.00;;;6.20;;
22705;SDS011;11520;51.198;4.468;2023-03-11T06:27:30;14.32;;;6.50;;
22705;SDS011;11520;51.198;4.468;2023-03-11T06:29:56;14.27;;;6.55;;
22705;SDS011;11520;51.198;4.468;2023-03-11T06:32:23;18.00;;;6.93;;
22705;SDS011;11520;51.198;4.468;2023-03-11T06:37:18;12.88;;;6.93;;
22705;SDS011;11520;51.198;4.468;2023-03-11T06:39:50;19.00;;;7.40;;
22705;SDS011;11520;51.198;4.468;2023-03-11T06:42:17;16.17;;;6.65;;
22705;SDS011;11520;51.198;4.468;2023-03-11T06:44:43;18.20;;;7.28;;
22705;SDS011;11520;51.198;4.468;2023-03-11T06:47:13;16.00;;;7.20;;
22705;SDS011;11520;51.198;4.468;2023-03-11T06:49:38;16.88;;;7.35;;
22705;SDS011;11520;51.198;4.468;2023-03-11T06:52:06;12.93;;;6.75;;
22705;SDS011;11520;51.198;4.468;2023-03-11T06:54:35;16.65;;;6.72;;
22705;SDS011;11520;51.198;4.468;2023-03-11T06:57:05;18.02;;;7.20;;
22705;SDS011;11520;51.198;4.468;2023-03-11T06:59:31;18.88;;;7.30;;
22705;SDS011;11520;51.198;4.468;2023-03-11T07:02:01;17.55;;;7.70;;
22705;SDS011;11520;51.198;4.468;2023-03-11T07:06:58;19.60;;;8.52;;
22705;SDS011;11520;51.198;4.468;2023-03-11T07:09:36;17.98;;;8.27;;
22705;SDS011;11520;51.198;4.468;2023-03-11T07:12:11;17.50;;;10.27;;
22705;SDS011;11520;51.198;4.468;2023-03-11T07:14:57;11.70;;;7.30;;
22705;SDS011;11520;51.198;4.468;2023-03-11T07:17:27;15.55;;;8.35;;
22705;SDS011;11520;51.198;4.468;2023-03-11T07:19:54;19.05;;;9.00;;
22705;SDS011;11520;51.198;4.468;2023-03-11T07:22:23;14.10;;;8.00;;
22705;SDS011;11520;51.198;4.468;2023-03-11T07:24:50;18.83;;;8.43;;
22705;SDS011;11520;51.198;4.468;2023-03-11T07:27:18;18.80;;;8.57;;
22705;SDS011;11520;51.198;4.468;2023-03-11T07:32:15;16.02;;;7.53;;
22705;SDS011;11520;51.198;4.468;2023-03-11T07:37:09;21.23;;;7.60;;
22705;SDS011;11520;51.198;4.468;2023-03-11T07:39:35;14.70;;;6.15;;
22705;SDS011;11520;51.198;4.468;2023-03-11T07:42:02;14.50;;;6.82;;
22705;SDS011;11520;51.198;4.468;2023-03-11T07:44:28;14.77;;;6.68;;
22705;SDS011;11520;51.198;4.468;2023-03-11T07:49:25;14.48;;;7.07;;
22705;SDS011;11520;51.198;4.468;2023-03-11T07:51:51;14.07;;;6.68;;
22705;SDS011;11520;51.198;4.468;2023-03-11T07:54:18;13.90;;;5.25;;
22705;SDS011;11520;51.198;4.468;2023-03-11T07:56:44;10.02;;;4.63;;
22705;SDS011;11520;51.198;4.468;2023-03-11T07:59:11;10.20;;;4.70;;
22705;SDS011;11520;51.198;4.468;2023-03-11T08:01:40;9.13;;;4.03;;
22705;SDS011;11520;51.198;4.468;2023-03-11T08:04:12;6.75;;;3.60;;
22705;SDS011;11520;51.198;4.468;2023-03-11T08:07:00;10.00;;;3.50;;
22705;SDS011;11520;51.198;4.468;2023-03-11T08:09:27;11.98;;;3.10;;
22705;SDS011;11520;51.198;4.468;2023-03-11T08:11:53;6.18;;;3.17;;
22705;SDS011;11520;51.198;4.468;2023-03-11T08:14:21;6.07;;;3.50;;
22705;SDS011;11520;51.198;4.468;2023-03-11T08:16:49;11.48;;;3.92;;
22705;SDS011;11520;51.198;4.468;2023-03-11T08:19:17;9.57;;;3.58;;
22705;SDS011;11520;51.198;4.468;2023-03-11T08:21:44;8.82;;;2.67;;
22705;SDS011;11520;51.198;4.468;2023-03-11T08:24:11;8.93;;;3.05;;
22705;SDS011;11520;51.198;4.468;2023-03-11T08:26:40;7.90;;;3.30;;
22705;SDS011;11520;51.198;4.468;2023-03-11T08:29:07;10.48;;;3.08;;
22705;SDS011;11520;51.198;4.468;2023-03-11T08:31:36;4.13;;;1.83;;
22705;SDS011;11520;51.198;4.468;2023-03-11T08:34:06;7.88;;;2.50;;
22705;SDS011;11520;51.198;4.468;2023-03-11T08:36:33;4.38;;;1.90;;
22705;SDS011;11520;51.198;4.468;2023-03-11T08:39:00;11.68;;;2.10;;
22705;SDS011;11520;51.198;4.468;2023-03-11T08:41:26;7.07;;;2.20;;
22705;SDS011;11520;51.198;4.468;2023-03-11T08:43:55;7.05;;;2.25;;
22705;SDS011;11520;51.198;4.468;2023-03-11T08:46:31;6.22;;;2.33;;
22705;SDS011;11520;51.198;4.468;2023-03-11T08:48:59;5.85;;;1.88;;
22705;SDS011;11520;51.198;4.468;2023-03-11T08:51:31;6.57;;;2.17;;
22705;SDS011;11520;51.198;4.468;2023-03-11T08:53:58;3.35;;;1.55;;
22705;SDS011;11520;51.198;4.468;2023-03-11T08:56:26;6.13;;;1.80;;
22705;SDS011;11520;51.198;4.468;2023-03-11T08:58:55;4.85;;;1.70;;
22705;SDS011;11520;51.198;4.468;2023-03-11T09:01:21;6.20;;;1.55;;
22705;SDS011;11520;51.198;4.468;2023-03-11T09:03:47;4.00;;;1.15;;
22705;SDS011;11520;51.198;4.468;2023-03-11T09:06:16;2.90;;;1.10;;
22705;SDS011;11520;51.198;4.468;2023-03-11T09:08:43;5.95;;;1.10;;
22705;SDS011;11520;51.198;4.468;2023-03-11T09:11:10;3.97;;;1.10;;
22705;SDS011;11520;51.198;4.468;2023-03-11T09:13:37;5.88;;;1.20;;
22705;SDS011;11520;51.198;4.468;2023-03-11T09:16:06;2.05;;;0.77;;
22705;SDS011;11520;51.198;4.468;2023-03-11T09:18:33;3.70;;;1.10;;
22705;SDS011;11520;51.198;4.468;2023-03-11T09:21:00;2.30;;;0.95;;
22705;SDS011;11520;51.198;4.468;2023-03-11T09:26:00;7.18;;;0.90;;
22705;SDS011;11520;51.198;4.468;2023-03-11T09:28:26;5.03;;;1.38;;
22705;SDS011;11520;51.198;4.468;2023-03-11T09:30:53;2.35;;;0.95;;
22705;SDS011;11520;51.198;4.468;2023-03-11T09:33:18;7.07;;;1.00;;
22705;SDS011;11520;51.198;4.468;2023-03-11T09:35:44;5.50;;;1.10;;
22705;SDS011;11520;51.198;4.468;2023-03-11T09:38:13;4.15;;;0.88;;
22705;SDS011;11520;51.198;4.468;2023-03-11T09:40:48;6.65;;;1.02;;
22705;SDS011;11520;51.198;4.468;2023-03-11T09:43:34;5.93;;;1.10;;
22705;SDS011;11520;51.198;4.468;2023-03-11T09:46:05;6.03;;;1.17;;
22705;SDS011;11520;51.198;4.468;2023-03-11T09:51:32;3.10;;;0.82;;
22705;SDS011;11520;51.198;4.468;2023-03-11T09:56:35;3.70;;;1.40;;
22705;SDS011;11520;51.198;4.468;2023-03-11T09:59:12;5.05;;;1.10;;
22705;SDS011;11520;51.198;4.468;2023-03-11T10:01:46;3.17;;;1.23;;
22705;SDS011;11520;51.198;4.468;2023-03-11T10:06:51;3.78;;;1.25;;
22705;SDS011;11520;51.198;4.468;2023-03-11T10:20:21;5.93;;;1.60;;
22705;SDS011;11520;51.198;4.468;2023-03-11T10:28:44;3.20;;;1.00;;
22705;SDS011;11520;51.198;4.468;2023-03-11T10:36:39;2.53;;;1.00;;
22705;SDS011;11520;51.198;4.468;2023-03-11T10:39:17;4.03;;;0.95;;
22705;SDS011;11520;51.198;4.468;2023-03-11T10:42:03;3.58;;;0.73;;
22705;SDS011;11520;51.198;4.468;2023-03-11T10:44:39;2.35;;;1.00;;
22705;SDS011;11520;51.198;4.468;2023-03-11T10:47:06;4.75;;;1.00;;
22705;SDS011;11520;51.198;4.468;2023-03-11T10:52:10;3.70;;;1.10;;
22705;SDS011;11520;51.198;4.468;2023-03-11T10:54:40;4.50;;;1.13;;
22705;SDS011;11520;51.198;4.468;2023-03-11T10:59:59;4.32;;;1.35;;
22705;SDS011;11520;51.198;4.468;2023-03-11T11:10:21;6.28;;;1.05;;
22705;SDS011;11520;51.198;4.468;2023-03-11T11:15:28;11.27;;;1.23;;
22705;SDS011;11520;51.198;4.468;2023-03-11T11:17:56;4.43;;;1.08;;
22705;SDS011;11520;51.198;4.468;2023-03-11T11:20:25;2.83;;;0.70;;
22705;SDS011;11520;51.198;4.468;2023-03-11T11:22:59;4.70;;;1.50;;
22705;SDS011;11520;51.198;4.468;2023-03-11T11:27:54;5.28;;;1.33;;
22705;SDS011;11520;51.198;4.468;2023-03-11T11:30:30;4.40;;;1.40;;
22705;SDS011;11520;51.198;4.468;2023-03-11T11:33:37;2.78;;;1.05;;
22705;SDS011;11520;51.198;4.468;2023-03-11T11:36:11;5.38;;;1.60;;
22705;SDS011;11520;51.198;4.468;2023-03-11T11:38:40;3.97;;;1.20;;
22705;SDS011;11520;51.198;4.468;2023-03-11T11:41:07;3.63;;;1.17;;
22705;SDS011;11520;51.198;4.468;2023-03-11T11:43:40;11.80;;;1.75;;
22705;SDS011;11520;51.198;4.468;2023-03-11T11:46:11;4.22;;;1.25;;
22705;SDS011;11520;51.198;4.468;2023-03-11T11:49:36;3.83;;;0.98;;
22705;SDS011;11520;51.198;4.468;2023-03-11T11:51:54;4.47;;;1.00;;
22705;SDS011;11520;51.198;4.468;2023-03-11T11:56:48;4.35;;;0.88;;
22705;SDS011;11520;51.198;4.468;2023-03-11T11:59:19;2.60;;;0.80;;
22705;SDS011;11520;51.198;4.468;2023-03-11T12:07:10;2.85;;;0.90;;
22705;SDS011;11520;51.198;4.468;2023-03-11T12:12:45;3.53;;;0.80;;
22705;SDS011;11520;51.198;4.468;2023-03-11T12:18:12;4.15;;;1.20;;
22705;SDS011;11520;51.198;4.468;2023-03-11T12:20:51;4.70;;;0.95;;
22705;SDS011;11520;51.198;4.468;2023-03-11T12:23:23;8.50;;;1.35;;
22705;SDS011;11520;51.198;4.468;2023-03-11T12:26:19;3.83;;;1.00;;
22705;SDS011;11520;51.198;4.468;2023-03-11T12:28:57;4.38;;;1.05;;
22705;SDS011;11520;51.198;4.468;2023-03-11T12:31:28;7.63;;;1.45;;
22705;SDS011;11520;51.198;4.468;2023-03-11T12:34:03;7.57;;;0.90;;
22705;SDS011;11520;51.198;4.468;2023-03-11T12:36:34;6.30;;;0.93;;
22705;SDS011;11520;51.198;4.468;2023-03-11T12:39:19;4.65;;;0.93;;
22705;SDS011;11520;51.198;4.468;2023-03-11T12:50:58;5.10;;;0.70;;
22705;SDS011;11520;51.198;4.468;2023-03-11T13:05:22;5.80;;;1.35;;
22705;SDS011;11520;51.198;4.468;2023-03-11T13:10:59;5.22;;;1.10;;
22705;SDS011;11520;51.198;4.468;2023-03-11T13:18:41;5.88;;;0.80;;
22705;SDS011;11520;51.198;4.468;2023-03-11T13:21:51;5.68;;;0.88;;
22705;SDS011;11520;51.198;4.468;2023-03-11T13:40:27;3.83;;;1.00;;
22705;SDS011;11520;51.198;4.468;2023-03-11T13:43:22;5.82;;;1.02;;
22705;SDS011;11520;51.198;4.468;2023-03-11T13:45:55;3.38;;;0.90;;
22705;SDS011;11520;51.198;4.468;2023-03-11T13:48:46;4.90;;;1.08;;
22705;SDS011;11520;51.198;4.468;2023-03-11T13:51:15;5.55;;;1.10;;
22705;SDS011;11520;51.198;4.468;2023-03-11T13:53:55;3.10;;;1.35;;
22705;SDS011;11520;51.198;4.468;2023-03-11T13:56:48;6.65;;;1.30;;
22705;SDS011;11520;51.198;4.468;2023-03-11T13:59:35;3.10;;;1.40;;
22705;SDS011;11520;51.198;4.468;2023-03-11T14:04:52;3.50;;;0.95;;
22705;SDS011;11520;51.198;4.468;2023-03-11T14:10:07;4.72;;;1.40;;
22705;SDS011;11520;51.198;4.468;2023-03-11T14:12:39;7.75;;;1.58;;
22705;SDS011;11520;51.198;4.468;2023-03-11T14:15:06;8.00;;;1.15;;
22705;SDS011;11520;51.198;4.468;2023-03-11T14:17:33;2.55;;;0.75;;
22705;SDS011;11520;51.198;4.468;2023-03-11T14:23:21;7.72;;;1.00;;
22705;SDS011;11520;51.198;4.468;2023-03-11T14:25:57;2.97;;;1.10;;
22705;SDS011;11520;51.198;4.468;2023-03-11T14:28:24;5.03;;;1.30;;
22705;SDS011;11520;51.198;4.468;2023-03-11T14:30:55;6.95;;;1.30;;
22705;SDS011;11520;51.198;4.468;2023-03-11T14:33:23;4.28;;;1.33;;
22705;SDS011;11520;51.198;4.468;2023-03-11T14:35:50;7.68;;;1.60;;
22705;SDS011;11520;51.198;4.468;2023-03-11T14:38:21;6.53;;;1.42;;
22705;SDS011;11520;51.198;4.468;2023-03-11T14:43:45;5.07;;;0.82;;
22705;SDS011;11520;51.198;4.468;2023-03-11T14:46:20;5.07;;;1.02;;
22705;SDS011;11520;51.198;4.468;2023-03-11T14:52:07;6.38;;;1.45;;
22705;SDS011;11520;51.198;4.468;2023-03-11T14:54:49;4.43;;;1.17;;
22705;SDS011;11520;51.198;4.468;2023-03-11T14:57:29;3.35;;;0.93;;
22705;SDS011;11520;51.198;4.468;2023-03-11T15:00:13;5.70;;;0.80;;
22705;SDS011;11520;51.198;4.468;2023-03-11T15:14:18;7.15;;;1.20;;
22705;SDS011;11520;51.198;4.468;2023-03-11T15:19:52;1.92;;;1.02;;
22705;SDS011;11520;51.198;4.468;2023-03-11T15:22:28;3.40;;;0.95;;
22705;SDS011;11520;51.198;4.468;2023-03-11T15:25:00;2.75;;;1.15;;
22705;SDS011;11520;51.198;4.468;2023-03-11T15:27:35;2.90;;;0.80;;
22705;SDS011;11520;51.198;4.468;2023-03-11T15:30:03;3.40;;;1.05;;
22705;SDS011;11520;51.198;4.468;2023-03-11T15:32:42;4.93;;;1.10;;
22705;SDS011;11520;51.198;4.468;2023-03-11T15:37:39;5.60;;;1.00;;
22705;SDS011;11520;51.198;4.468;2023-03-11T15:43:09;4.95;;;1.20;;
22705;SDS011;11520;51.198;4.468;2023-03-11T15:45:38;5.25;;;1.50;;
22705;SDS011;11520;51.198;4.468;2023-03-11T15:48:04;4.78;;;1.00;;
22705;SDS011;11520;51.198;4.468;2023-03-11T15:50:30;5.18;;;1.42;;
22705;SDS011;11520;51.198;4.468;2023-03-11T15:52:56;2.72;;;1.20;;
22705;SDS011;11520;51.198;4.468;2023-03-11T15:55:24;2.78;;;1.23;;
22705;SDS011;11520;51.198;4.468;2023-03-11T15:58:11;6.63;;;1.50;;
22705;SDS011;11520;51.198;4.468;2023-03-11T16:00:53;4.00;;;1.25;;
22705;SDS011;11520;51.198;4.468;2023-03-11T16:03:20;5.43;;;0.80;;
22705;SDS011;11520;51.198;4.468;2023-03-11T16:05:47;2.45;;;0.90;;
22705;SDS011;11520;51.198;4.468;2023-03-11T16:08:14;3.90;;;1.10;;
22705;SDS011;11520;51.198;4.468;2023-03-11T16:10:41;3.40;;;1.13;;
22705;SDS011;11520;51.198;4.468;2023-03-11T16:13:09;6.85;;;1.35;;
22705;SDS011;11520;51.198;4.468;2023-03-11T16:15:38;3.13;;;1.27;;
22705;SDS011;11520;51.198;4.468;2023-03-11T16:18:04;3.80;;;1.10;;
22705;SDS011;11520;51.198;4.468;2023-03-11T16:20:36;5.72;;;1.30;;
22705;SDS011;11520;51.198;4.468;2023-03-11T16:23:02;3.00;;;1.10;;
22705;SDS011;11520;51.198;4.468;2023-03-11T16:25:36;4.18;;;1.05;;
22705;SDS011;11520;51.198;4.468;2023-03-11T16:28:05;5.20;;;1.25;;
22705;SDS011;11520;51.198;4.468;2023-03-11T16:30:33;5.00;;;1.48;;
22705;SDS011;11520;51.198;4.468;2023-03-11T16:33:00;6.20;;;1.02;;
22705;SDS011;11520;51.198;4.468;2023-03-11T16:35:27;5.45;;;1.20;;
22705;SDS011;11520;51.198;4.468;2023-03-11T16:37:56;4.78;;;1.02;;
22705;SDS011;11520;51.198;4.468;2023-03-11T16:40:24;4.30;;;1.23;;
22705;SDS011;11520;51.198;4.468;2023-03-11T16:42:56;3.50;;;1.10;;
22705;SDS011;11520;51.198;4.468;2023-03-11T16:45:28;3.60;;;1.35;;
22705;SDS011;11520;51.198;4.468;2023-03-11T16:47:55;5.25;;;1.77;;
22705;SDS011;11520;51.198;4.468;2023-03-11T16:50:22;5.07;;;1.58;;
22705;SDS011;11520;51.198;4.468;2023-03-11T16:52:55;10.25;;;1.10;;
22705;SDS011;11520;51.198;4.468;2023-03-11T16:55:21;7.07;;;1.67;;
22705;SDS011;11520;51.198;4.468;2023-03-11T16:57:51;4.20;;;1.90;;
22705;SDS011;11520;51.198;4.468;2023-03-11T17:00:22;5.32;;;1.70;;
22705;SDS011;11520;51.198;4.468;2023-03-11T17:02:50;7.22;;;1.98;;
22705;SDS011;11520;51.198;4.468;2023-03-11T17:07:45;6.32;;;1.33;;
22705;SDS011;11520;51.198;4.468;2023-03-11T17:10:11;4.80;;;2.00;;
22705;SDS011;11520;51.198;4.468;2023-03-11T17:12:38;2.72;;;1.55;;
22705;SDS011;11520;51.198;4.468;2023-03-11T17:15:05;5.75;;;1.90;;
22705;SDS011;11520;51.198;4.468;2023-03-11T17:17:31;5.75;;;2.22;;
22705;SDS011;11520;51.198;4.468;2023-03-11T17:19:57;6.10;;;2.42;;
22705;SDS011;11520;51.198;4.468;2023-03-11T17:22:24;8.63;;;1.83;;
22705;SDS011;11520;51.198;4.468;2023-03-11T17:24:54;4.07;;;1.17;;
22705;SDS011;11520;51.198;4.468;2023-03-11T17:27:20;7.13;;;1.70;;
22705;SDS011;11520;51.198;4.468;2023-03-11T17:29:46;5.53;;;1.63;;
22705;SDS011;11520;51.198;4.468;2023-03-11T17:32:13;8.15;;;3.40;;
22705;SDS011;11520;51.198;4.468;2023-03-11T17:34:41;6.13;;;3.25;;
22705;SDS011;11520;51.198;4.468;2023-03-11T17:37:07;8.48;;;1.98;;
22705;SDS011;11520;51.198;4.468;2023-03-11T17:39:33;5.43;;;1.85;;
22705;SDS011;11520;51.198;4.468;2023-03-11T17:42:00;4.28;;;1.85;;
22705;SDS011;11520;51.198;4.468;2023-03-11T17:44:26;5.20;;;1.77;;
22705;SDS011;11520;51.198;4.468;2023-03-11T17:46:53;5.70;;;1.50;;
22705;SDS011;11520;51.198;4.468;2023-03-11T17:49:19;5.75;;;2.13;;
22705;SDS011;11520;51.198;4.468;2023-03-11T17:51:46;8.07;;;2.28;;
22705;SDS011;11520;51.198;4.468;2023-03-11T17:54:16;6.47;;;3.35;;
22705;SDS011;11520;51.198;4.468;2023-03-11T18:00:05;2.80;;;1.80;;
22705;SDS011;11520;51.198;4.468;2023-03-11T18:02:43;6.38;;;2.30;;
22705;SDS011;11520;51.198;4.468;2023-03-11T18:05:09;5.55;;;2.70;;
22705;SDS011;11520;51.198;4.468;2023-03-11T18:07:36;12.82;;;4.05;;
22705;SDS011;11520;51.198;4.468;2023-03-11T18:10:03;12.13;;;5.70;;
22705;SDS011;11520;51.198;4.468;2023-03-11T18:12:30;11.65;;;5.05;;
22705;SDS011;11520;51.198;4.468;2023-03-11T18:14:57;11.25;;;4.82;;
22705;SDS011;11520;51.198;4.468;2023-03-11T18:17:22;16.10;;;6.47;;